Time;durP1;ratioP1;P1;durP2;ratioP2;P2;SDS_P1;SDS_P2;PMS_P1;PMS_P2;Temp;Humidity;BMP_temperature;BMP_pressure;BME280_temperature;BME280_humidity;BME280_pressure;Samples;Min_cycle;Max_cycle;Signal;HPM_P1;HPM_P2
2021/08/25 00:02:09;;;;;;;8.38;4.60;;;537.60;1971.20;;;;;;4997501;28;20023;-73
2021/08/25 00:04:37;;;;;;;5.82;4.43;;;537.60;1971.20;;;;;;4997237;28;20058;-75
2021/08/25 00:07:02;;;;;;;5.03;4.18;;;537.60;1971.20;;;;;;4996013;28;20030;-74
2021/08/25 00:09:28;;;;;;;7.05;4.45;;;537.60;1971.20;;;;;;4997434;28;20033;-68
2021/08/25 00:11:54;;;;;;;5.90;4.03;;;537.60;1971.20;;;;;;4997213;28;20360;-75
2021/08/25 00:14:20;;;;;;;4.18;3.75;;;537.60;1996.80;;;;;;4996553;28;20030;-75
2021/08/25 00:16:45;;;;;;;6.13;3.30;;;537.60;1971.20;;;;;;4996951;28;20019;-66
2021/08/25 00:19:11;;;;;;;4.18;3.17;;;537.60;1971.20;;;;;;4996878;28;20121;-75
2021/08/25 00:21:37;;;;;;;3.30;3.00;;;537.60;1971.20;;;;;;4997219;28;20023;-76
2021/08/25 00:24:03;;;;;;;3.45;3.15;;;512.90;1945.60;;;;;;4997189;28;20105;-75
2021/08/25 00:26:29;;;;;;;3.67;2.95;;;512.90;1945.60;;;;;;4997435;28;20470;-76
2021/08/25 00:28:54;;;;;;;3.22;2.55;;;512.90;1945.60;;;;;;4995897;28;20022;-71
2021/08/25 00:31:20;;;;;;;2.50;2.22;;;512.90;1920.00;;;;;;4996899;28;20065;-76
2021/08/25 00:33:46;;;;;;;2.20;2.00;;;512.80;1894.40;;;;;;4996725;28;20105;-69
2021/08/25 00:36:11;;;;;;;1.90;1.70;;;512.80;1894.40;;;;;;4996832;28;20069;-74
2021/08/25 00:38:37;;;;;;;3.08;1.75;;;512.80;1868.80;;;;;;4995507;28;20444;-74
2021/08/25 00:41:03;;;;;;;1.85;1.73;;;512.70;1868.80;;;;;;4996786;28;20035;-75
2021/08/25 00:43:29;;;;;;;2.95;1.55;;;512.70;1868.80;;;;;;4979201;28;20488;-76
2021/08/25 00:45:55;;;;;;;2.15;1.40;;;512.70;1843.20;;;;;;4996711;28;20157;-69
2021/08/25 00:48:21;;;;;;;1.30;1.20;;;512.70;1868.80;;;;;;4996708;28;20481;-68
2021/08/25 00:50:47;;;;;;;1.67;1.58;;;512.60;1843.20;;;;;;4996814;28;20026;-75
2021/08/25 00:53:13;;;;;;;2.67;1.40;;;512.60;1843.20;;;;;;4996560;28;20029;-75
2021/08/25 00:55:39;;;;;;;3.90;1.20;;;512.60;1843.20;;;;;;4996576;28;20384;-75
2021/08/25 00:58:06;;;;;;;8.80;1.33;;;512.50;1843.20;;;;;;4996510;28;20027;-68
2021/08/25 01:00:33;;;;;;;0.85;0.85;;;512.50;1817.60;;;;;;4996324;28;20030;-68
2021/08/25 01:03:02;;;;;;;4.05;1.00;;;512.50;1817.60;;;;;;4995640;28;20025;-70
2021/08/25 01:05:33;;;;;;;1.30;1.10;;;512.40;1817.60;;;;;;4996244;28;20038;-75
2021/08/25 01:08:02;;;;;;;0.93;0.90;;;512.40;1817.60;;;;;;4996177;28;20376;-67
2021/08/25 01:10:30;;;;;;;0.85;0.85;;;512.30;1817.60;;;;;;4996273;28;20114;-67
2021/08/25 01:12:58;;;;;;;3.05;1.23;;;512.30;1792.00;;;;;;4995866;28;20026;-71
2021/08/25 01:15:26;;;;;;;2.83;0.90;;;512.20;1817.60;;;;;;4996509;28;20034;-68
2021/08/25 01:17:53;;;;;;;2.53;0.90;;;512.20;1792.00;;;;;;4995903;28;20479;-71
2021/08/25 01:20:21;;;;;;;2.97;0.93;;;512.10;1792.00;;;;;;4996082;28;20049;-74
2021/08/25 01:22:47;;;;;;;1.75;0.68;;;512.10;1792.00;;;;;;4995920;28;20022;-74
2021/08/25 01:25:13;;;;;;;2.70;0.90;;;512.10;1792.00;;;;;;4996286;28;20030;-75
2021/08/25 01:27:45;;;;;;;2.28;0.70;;;512.10;1817.60;;;;;;4996092;28;20369;-75
2021/08/25 01:30:11;;;;;;;1.58;0.88;;;512.10;1792.00;;;;;;4995164;28;20038;-75
2021/08/25 01:32:41;;;;;;;0.80;0.80;;;512.00;1792.00;;;;;;4978196;28;20407;-75
2021/08/25 01:35:07;;;;;;;1.95;0.70;;;512.00;1792.00;;;;;;4978013;28;20041;-67
2021/08/25 01:37:34;;;;;;;0.60;0.60;;;487.30;1792.00;;;;;;4995050;28;20022;-74
2021/08/25 01:40:00;;;;;;;0.80;0.70;;;487.30;1792.00;;;;;;4995112;28;20468;-75
2021/08/25 01:42:26;;;;;;;0.50;0.50;;;487.30;1792.00;;;;;;4995262;28;20038;-74
2021/08/25 01:44:53;;;;;;;2.55;0.82;;;487.30;1792.00;;;;;;4995798;28;20030;-74
2021/08/25 01:47:20;;;;;;;0.60;0.52;;;487.30;1792.00;;;;;;4978017;28;20109;-75
2021/08/25 01:49:47;;;;;;;0.80;0.73;;;487.20;1792.00;;;;;;4977827;28;20042;-67
2021/08/25 01:52:13;;;;;;;0.60;0.60;;;487.20;1792.00;;;;;;4995456;28;20026;-71
2021/08/25 01:54:39;;;;;;;3.28;0.80;;;487.20;1792.00;;;;;;4995297;28;20097;-68
2021/08/25 01:57:06;;;;;;;0.98;0.60;;;487.20;1792.00;;;;;;4995406;28;20089;-75
2021/08/25 01:59:32;;;;;;;0.95;0.70;;;487.20;1817.60;;;;;;4995095;28;20027;-67
2021/08/25 02:01:58;;;;;;;0.75;0.60;;;487.20;1817.60;;;;;;4976875;28;20085;-74
2021/08/25 02:04:24;;;;;;;3.22;0.70;;;487.10;1817.60;;;;;;4995096;28;20500;-75
2021/08/25 02:06:50;;;;;;;0.98;0.73;;;487.10;1817.60;;;;;;4993806;28;20075;-67
2021/08/25 02:09:16;;;;;;;3.03;0.75;;;487.10;1817.60;;;;;;4995208;28;20479;-74
2021/08/25 02:11:42;;;;;;;0.57;0.57;;;487.10;1817.60;;;;;;4995060;28;20026;-70
2021/08/25 02:14:08;;;;;;;0.90;0.60;;;487.10;1817.60;;;;;;4994471;28;20038;-70
2021/08/25 02:16:34;;;;;;;3.05;0.60;;;487.10;1817.60;;;;;;4993893;28;20034;-76
2021/08/25 02:19:00;;;;;;;0.75;0.60;;;487.00;1817.60;;;;;;4994185;28;20076;-72
2021/08/25 02:21:26;;;;;;;1.20;0.88;;;487.00;1817.60;;;;;;4994609;28;20033;-74
2021/08/25 02:23:51;;;;;;;4.15;0.80;;;486.90;1817.60;;;;;;4994921;28;20018;-73
2021/08/25 02:26:17;;;;;;;0.52;0.52;;;486.90;1792.00;;;;;;4994750;28;20028;-70
2021/08/25 02:28:49;;;;;;;0.80;0.80;;;486.90;1817.60;;;;;;4994055;28;20026;-69
2021/08/25 02:31:16;;;;;;;0.60;0.60;;;486.90;1792.00;;;;;;4994032;28;20430;-67
2021/08/25 02:33:42;;;;;;;2.13;0.75;;;486.90;1817.60;;;;;;4994732;28;20034;-76
2021/08/25 02:36:09;;;;;;;0.60;0.60;;;486.90;1792.00;;;;;;4994745;28;20034;-72
2021/08/25 02:38:37;;;;;;;0.52;0.52;;;486.90;1792.00;;;;;;4994889;28;20424;-69
2021/08/25 02:41:04;;;;;;;0.55;0.55;;;486.90;1792.00;;;;;;4994779;28;20043;-76
2021/08/25 02:43:31;;;;;;;0.85;0.65;;;486.80;1792.00;;;;;;4976881;28;20121;-76
2021/08/25 02:45:57;;;;;;;1.08;0.60;;;486.90;1792.00;;;;;;4994809;28;20106;-66
2021/08/25 02:48:22;;;;;;;1.30;0.80;;;486.80;1792.00;;;;;;4994422;28;20064;-75
2021/08/25 02:50:48;;;;;;;1.30;1.13;;;486.80;1792.00;;;;;;4994621;28;20031;-70
2021/08/25 02:53:16;;;;;;;0.73;0.70;;;486.80;1792.00;;;;;;4994586;28;20376;-70
2021/08/25 02:55:42;;;;;;;2.45;0.60;;;486.80;1792.00;;;;;;4994422;28;20044;-69
2021/08/25 02:58:08;;;;;;;0.90;0.55;;;486.80;1792.00;;;;;;4994541;28;20106;-68
2021/08/25 03:00:33;;;;;;;1.67;0.65;;;486.80;1792.00;;;;;;4993590;28;20042;-71
2021/08/25 03:02:59;;;;;;;0.88;0.57;;;486.70;1792.00;;;;;;4994136;28;20418;-66
2021/08/25 03:05:25;;;;;;;4.43;0.60;;;486.70;1792.00;;;;;;4994236;28;20041;-66
2021/08/25 03:07:50;;;;;;;1.00;0.52;;;486.80;1817.60;;;;;;4976323;28;20080;-65
2021/08/25 03:10:16;;;;;;;0.70;0.60;;;486.70;1817.60;;;;;;4994251;28;20030;-68
2021/08/25 03:12:42;;;;;;;0.70;0.70;;;486.70;1817.60;;;;;;4995568;28;20045;-68
2021/08/25 03:15:09;;;;;;;0.70;0.70;;;486.60;1843.20;;;;;;4997703;28;20121;-68
2021/08/25 03:17:35;;;;;;;0.60;0.60;;;486.60;1843.20;;;;;;4998335;28;20030;-65
2021/08/25 03:20:01;;;;;;;7.22;0.93;;;486.70;1843.20;;;;;;4998448;28;20460;-67
2021/08/25 03:22:30;;;;;;;6.93;1.25;;;486.70;1868.80;;;;;;4998159;28;20104;-68
2021/08/25 03:24:56;;;;;;;7.47;1.52;;;486.60;1843.20;;;;;;4980213;28;20097;-66
2021/08/25 03:27:22;;;;;;;3.30;0.80;;;486.60;1868.80;;;;;;4997639;28;20030;-68
2021/08/25 03:29:48;;;;;;;3.00;1.25;;;486.60;1868.80;;;;;;4998109;28;20089;-68
2021/08/25 03:32:13;;;;;;;4.07;0.98;;;486.50;1894.40;;;;;;4997100;28;20031;-69
2021/08/25 03:34:39;;;;;;;2.22;0.88;;;486.50;1868.80;;;;;;4997224;28;20132;-69
2021/08/25 03:37:05;;;;;;;2.20;0.70;;;486.50;1894.40;;;;;;4997789;28;20023;-66
2021/08/25 03:39:32;;;;;;;2.30;0.70;;;486.40;1920.00;;;;;;4997788;28;20041;-69
2021/08/25 03:41:57;;;;;;;1.33;0.70;;;486.40;1920.00;;;;;;4997849;28;20022;-69
2021/08/25 03:44:23;;;;;;;2.63;0.75;;;486.40;1920.00;;;;;;4997856;28;20271;-69
2021/08/25 03:46:49;;;;;;;7.03;1.05;;;461.70;1920.00;;;;;;4997789;28;20440;-66
2021/08/25 03:49:15;;;;;;;1.38;0.90;;;461.70;1920.00;;;;;;4997733;28;20042;-66
2021/08/25 03:51:41;;;;;;;1.33;0.85;;;461.60;1920.00;;;;;;4997447;28;20049;-66
2021/08/25 03:54:06;;;;;;;1.65;0.70;;;461.60;1920.00;;;;;;4997629;28;20062;-66
2021/08/25 03:56:32;;;;;;;1.35;0.85;;;461.60;1920.00;;;;;;4997338;28;20035;-66
2021/08/25 03:58:58;;;;;;;0.75;0.68;;;461.60;1945.60;;;;;;4997483;28;20074;-66
2021/08/25 04:01:24;;;;;;;1.10;0.80;;;461.50;1920.00;;;;;;4997649;28;20054;-69
2021/08/25 04:03:49;;;;;;;1.05;1.00;;;461.50;1945.60;;;;;;4996702;28;20041;-69
2021/08/25 04:06:15;;;;;;;0.70;0.70;;;461.50;1945.60;;;;;;4997301;28;20038;-68
2021/08/25 04:08:41;;;;;;;1.63;0.80;;;461.50;1920.00;;;;;;4997149;28;20089;-69
2021/08/25 04:11:06;;;;;;;0.60;0.60;;;461.50;1945.60;;;;;;4997550;28;20022;-69
2021/08/25 04:13:32;;;;;;;1.02;0.73;;;461.40;1920.00;;;;;;4996219;28;20046;-68
2021/08/25 04:15:58;;;;;;;0.80;0.80;;;461.50;1920.00;;;;;;4997102;28;20038;-66
2021/08/25 04:18:25;;;;;;;0.73;0.73;;;461.40;1920.00;;;;;;4996334;28;20117;-66
2021/08/25 04:20:51;;;;;;;1.48;1.10;;;461.40;1920.00;;;;;;4997212;28;20134;-68
2021/08/25 04:23:18;;;;;;;1.55;1.13;;;461.40;1920.00;;;;;;4996621;28;20077;-69
2021/08/25 04:25:43;;;;;;;1.42;1.00;;;461.40;1920.00;;;;;;4979525;28;20373;-69
2021/08/25 04:28:10;;;;;;;1.10;0.88;;;461.40;1920.00;;;;;;4996967;28;20023;-69
2021/08/25 04:30:36;;;;;;;1.10;0.90;;;461.40;1920.00;;;;;;4996830;28;20468;-66
2021/08/25 04:33:04;;;;;;;1.15;0.90;;;461.40;1920.00;;;;;;4996136;28;20033;-66
2021/08/25 04:35:30;;;;;;;1.20;0.80;;;461.40;1920.00;;;;;;4996780;28;20378;-68
2021/08/25 04:37:55;;;;;;;2.67;1.00;;;461.40;1920.00;;;;;;4996836;28;20030;-69
2021/08/25 04:40:21;;;;;;;1.58;0.93;;;461.40;1920.00;;;;;;4996670;28;20023;-69
2021/08/25 04:42:47;;;;;;;2.78;0.80;;;461.40;1920.00;;;;;;4997040;28;20022;-69
2021/08/25 04:45:14;;;;;;;1.48;0.80;;;461.40;1920.00;;;;;;4996605;28;20037;-68
2021/08/25 04:47:39;;;;;;;3.92;0.93;;;461.30;1920.00;;;;;;4996570;28;20022;-66
2021/08/25 04:50:05;;;;;;;1.08;0.90;;;461.40;1920.00;;;;;;4996455;28;20440;-68
2021/08/25 04:52:31;;;;;;;2.13;0.70;;;461.30;1920.00;;;;;;4996428;28;20109;-69
2021/08/25 04:54:57;;;;;;;1.05;0.88;;;461.30;1894.40;;;;;;4996281;28;20113;-66
2021/08/25 04:57:22;;;;;;;4.70;0.70;;;461.30;1920.00;;;;;;4996398;28;20034;-66
2021/08/25 04:59:48;;;;;;;1.27;0.98;;;461.30;1894.40;;;;;;4978944;28;20058;-66
2021/08/25 05:02:14;;;;;;;2.80;0.90;;;461.30;1894.40;;;;;;4996112;28;20023;-66
2021/08/25 05:04:40;;;;;;;0.77;0.70;;;461.30;1894.40;;;;;;4996083;28;20104;-66
2021/08/25 05:07:05;;;;;;;2.10;0.68;;;461.30;1894.40;;;;;;4996484;28;20093;-66
2021/08/25 05:09:31;;;;;;;2.22;0.63;;;461.30;1894.40;;;;;;4978696;28;20033;-66
2021/08/25 05:11:57;;;;;;;1.05;0.82;;;461.30;1894.40;;;;;;4995483;28;20030;-66
2021/08/25 05:14:22;;;;;;;2.22;0.70;;;461.30;1868.80;;;;;;4995534;28;20034;-66
2021/08/25 05:16:48;;;;;;;2.65;0.80;;;461.30;1894.40;;;;;;4995586;28;20122;-66
2021/08/25 05:19:14;;;;;;;0.70;0.70;;;461.30;1894.40;;;;;;4996146;28;20034;-66
2021/08/25 05:21:40;;;;;;;1.63;0.80;;;461.40;1868.80;;;;;;4996512;28;20030;-66
2021/08/25 05:24:05;;;;;;;3.22;1.00;;;461.40;1894.40;;;;;;4994855;28;20099;-66
2021/08/25 05:26:31;;;;;;;3.45;0.95;;;461.40;1868.80;;;;;;4996001;28;20030;-66
2021/08/25 05:28:57;;;;;;;1.95;0.90;;;461.40;1868.80;;;;;;4995770;28;20096;-68
2021/08/25 05:31:24;;;;;;;1.15;1.02;;;461.50;1868.80;;;;;;4995617;28;20037;-68
2021/08/25 05:33:50;;;;;;;3.78;0.98;;;461.50;1868.80;;;;;;4995618;28;20026;-69
2021/08/25 05:36:15;;;;;;;1.05;0.95;;;461.40;1868.80;;;;;;4994984;28;20047;-68
2021/08/25 05:38:41;;;;;;;3.42;0.90;;;461.50;1868.80;;;;;;4995844;28;20027;-68
2021/08/25 05:41:07;;;;;;;1.15;0.88;;;461.50;1868.80;;;;;;4995696;28;20034;-67
2021/08/25 05:43:32;;;;;;;3.03;1.00;;;461.50;1843.20;;;;;;4995610;28;20054;-68
2021/08/25 05:45:58;;;;;;;1.90;0.90;;;461.50;1843.20;;;;;;4995520;28;20040;-68
2021/08/25 05:48:24;;;;;;;1.60;1.00;;;461.50;1868.80;;;;;;4978298;28;20066;-68
2021/08/25 05:50:50;;;;;;;7.32;1.00;;;461.50;1843.20;;;;;;4995710;28;20031;-68
2021/08/25 05:53:16;;;;;;;3.63;0.85;;;461.50;1868.80;;;;;;4995416;28;20034;-68
2021/08/25 05:55:41;;;;;;;0.98;0.75;;;461.50;1843.20;;;;;;4994338;28;20423;-68
2021/08/25 05:58:07;;;;;;;2.05;0.70;;;461.50;1843.20;;;;;;4995821;28;20022;-68
2021/08/25 06:00:33;;;;;;;1.67;1.10;;;461.60;1843.20;;;;;;4994894;28;20031;-68
2021/08/25 06:02:59;;;;;;;3.25;0.80;;;461.60;1843.20;;;;;;4994919;28;20376;-69
2021/08/25 06:05:25;;;;;;;1.00;0.77;;;461.60;1843.20;;;;;;4976924;28;20049;-67
2021/08/25 06:07:51;;;;;;;3.92;1.10;;;461.60;1817.60;;;;;;4992802;28;20027;-75
2021/08/25 06:10:17;;;;;;;1.58;1.00;;;461.60;1843.20;;;;;;4984801;28;20033;-74
2021/08/25 06:12:42;;;;;;;1.20;1.00;;;461.70;1817.60;;;;;;4985773;28;20084;-69
2021/08/25 06:15:08;;;;;;;3.05;0.95;;;461.70;1817.60;;;;;;4984060;28;20109;-70
2021/08/25 06:17:34;;;;;;;2.25;1.20;;;461.70;1817.60;;;;;;4983989;28;20025;-72
2021/08/25 06:20:00;;;;;;;2.30;1.17;;;461.70;1843.20;;;;;;4967656;28;20519;-66
2021/08/25 06:22:26;;;;;;;4.18;1.27;;;486.40;1843.20;;;;;;4985497;28;20105;-70
2021/08/25 06:24:52;;;;;;;1.35;1.10;;;486.40;1843.20;;;;;;4984832;28;20054;-69
2021/08/25 06:27:17;;;;;;;1.25;0.98;;;486.40;1817.60;;;;;;4983734;28;20105;-65
2021/08/25 06:29:43;;;;;;;2.92;1.25;;;486.50;1817.60;;;;;;4977550;28;20018;-66
2021/08/25 06:32:09;;;;;;;2.78;1.55;;;486.50;1817.60;;;;;;4957163;28;20552;-68
2021/08/25 06:34:35;;;;;;;6.55;1.35;;;486.50;1817.60;;;;;;4975187;28;20039;-65
2021/08/25 06:37:01;;;;;;;11.20;1.30;;;486.50;1792.00;;;;;;4974945;28;20026;-68
2021/08/25 06:39:26;;;;;;;4.90;1.48;;;486.60;1817.60;;;;;;4972617;28;20101;-66
2021/08/25 06:41:52;;;;;;;3.03;1.00;;;486.60;1792.00;;;;;;4974088;28;20055;-67
2021/08/25 06:44:18;;;;;;;3.25;1.30;;;486.80;1817.60;;;;;;4975119;28;20110;-67
2021/08/25 06:46:44;;;;;;;3.88;1.40;;;486.80;1792.00;;;;;;4973218;28;20392;-67
2021/08/25 06:49:09;;;;;;;2.58;1.33;;;486.80;1792.00;;;;;;4974764;28;20518;-67
2021/08/25 06:51:35;;;;;;;1.92;1.20;;;486.80;1792.00;;;;;;4974784;28;20027;-66
2021/08/25 06:54:01;;;;;;;5.20;1.45;;;486.80;1792.00;;;;;;4956999;28;20038;-67
2021/08/25 06:56:27;;;;;;;2.55;1.40;;;486.80;1766.40;;;;;;4974158;28;20045;-67
2021/08/25 06:58:52;;;;;;;2.70;1.02;;;486.80;1766.40;;;;;;4974885;28;20472;-67
2021/08/25 07:01:18;;;;;;;2.78;1.48;;;486.80;1766.40;;;;;;4974937;28;20027;-69
2021/08/25 07:03:44;;;;;;;17.92;12.43;;;486.80;1766.40;;;;;;4982352;28;20565;-70
2021/08/25 07:06:10;;;;;;;17.40;13.70;;;486.80;1766.40;;;;;;4993519;28;20041;-70
2021/08/25 07:08:35;;;;;;;14.48;9.18;;;486.80;1766.40;;;;;;4976104;28;20046;-71
2021/08/25 07:11:01;;;;;;;3.65;2.70;;;486.80;1766.40;;;;;;4994374;28;20073;-71
2021/08/25 07:13:27;;;;;;;2.08;1.75;;;486.90;1792.00;;;;;;4993964;28;20019;-72
2021/08/25 07:15:52;;;;;;;1.95;1.40;;;486.90;1792.00;;;;;;4976193;28;20492;-71
2021/08/25 07:18:18;;;;;;;2.50;1.42;;;486.90;1766.40;;;;;;4993791;28;20034;-71
2021/08/25 07:20:45;;;;;;;2.28;1.50;;;486.80;1766.40;;;;;;4993632;28;20036;-71
2021/08/25 07:23:10;;;;;;;2.92;1.35;;;486.90;1766.40;;;;;;4993859;28;20080;-71
2021/08/25 07:25:36;;;;;;;2.70;1.90;;;486.90;1766.40;;;;;;4975927;28;20038;-70
2021/08/25 07:28:02;;;;;;;7.88;1.98;;;486.90;1766.40;;;;;;4994134;28;20030;-70
2021/08/25 07:30:28;;;;;;;3.38;1.58;;;486.90;1766.40;;;;;;4994031;28;20030;-70
2021/08/25 07:32:53;;;;;;;2.40;1.48;;;486.90;1766.40;;;;;;4993740;28;20038;-70
2021/08/25 07:35:19;;;;;;;3.83;1.92;;;486.90;1792.00;;;;;;4993385;28;20031;-72
2021/08/25 07:37:45;;;;;;;2.78;1.80;;;486.90;1766.40;;;;;;4993449;28;20081;-70
2021/08/25 07:40:11;;;;;;;2.38;1.70;;;486.90;1766.40;;;;;;4994011;28;20048;-71
2021/08/25 07:42:37;;;;;;;2.25;2.00;;;486.90;1766.40;;;;;;4993990;28;20046;-71
2021/08/25 07:45:05;;;;;;;3.00;1.98;;;486.90;1792.00;;;;;;4993991;28;20053;-70
2021/08/25 07:47:30;;;;;;;7.78;2.10;;;486.90;1792.00;;;;;;4993763;28;20030;-71
2021/08/25 07:49:56;;;;;;;4.50;2.05;;;486.90;1766.40;;;;;;4993853;28;20030;-71
2021/08/25 07:52:23;;;;;;;4.25;1.70;;;486.90;1766.40;;;;;;4994191;28;20121;-71
2021/08/25 07:54:49;;;;;;;4.13;1.80;;;486.90;1766.40;;;;;;4993670;28;20168;-72
2021/08/25 07:57:14;;;;;;;4.63;1.70;;;486.90;1766.40;;;;;;4993830;28;20062;-70
2021/08/25 07:59:40;;;;;;;3.92;1.92;;;486.90;1740.80;;;;;;4978304;28;20031;-71
2021/08/25 08:02:06;;;;;;;5.32;2.20;;;486.90;1766.40;;;;;;4996664;28;20201;-71
2021/08/25 08:04:32;;;;;;;3.45;2.25;;;486.90;1766.40;;;;;;4996997;28;20081;-71
2021/08/25 08:06:58;;;;;;;3.15;2.15;;;486.90;1766.40;;;;;;4996942;28;20026;-71
2021/08/25 08:09:24;;;;;;;4.43;2.00;;;486.90;1766.40;;;;;;4997209;28;20049;-71
2021/08/25 08:11:49;;;;;;;3.45;2.10;;;486.90;1766.40;;;;;;4995856;28;20461;-71
2021/08/25 08:14:15;;;;;;;3.33;2.40;;;486.90;1766.40;;;;;;4996806;28;20034;-71
2021/08/25 08:16:44;;;;;;;3.85;2.33;;;487.00;1766.40;;;;;;4997181;28;20093;-71
2021/08/25 08:19:18;;;;;;;2.78;2.10;;;487.10;1766.40;;;;;;4997502;28;20018;-71
2021/08/25 08:21:45;;;;;;;4.80;2.35;;;487.10;1740.80;;;;;;4997122;28;20388;-72
2021/08/25 08:24:12;;;;;;;3.03;2.40;;;487.10;1740.80;;;;;;4997186;28;20101;-72
2021/08/25 08:26:37;;;;;;;3.30;2.38;;;487.10;1740.80;;;;;;4996823;28;20025;-71
2021/08/25 08:29:04;;;;;;;4.95;2.45;;;487.10;1740.80;;;;;;4996753;28;20109;-72
2021/08/25 08:31:29;;;;;;;6.45;2.35;;;487.20;1766.40;;;;;;4997119;28;20102;-72
2021/08/25 08:33:55;;;;;;;5.57;2.35;;;487.20;1740.80;;;;;;4996711;28;20068;-71
2021/08/25 08:36:22;;;;;;;5.25;2.60;;;487.30;1740.80;;;;;;4996641;28;20038;-70
2021/08/25 08:38:47;;;;;;;6.10;2.50;;;512.00;1740.80;;;;;;4996577;28;20043;-72
2021/08/25 08:41:13;;;;;;;3.67;2.75;;;512.00;1715.20;;;;;;4996877;28;20029;-72
2021/08/25 08:43:48;;;;;;;3.25;2.28;;;512.10;1740.80;;;;;;4995449;28;20443;-70
2021/08/25 08:46:20;;;;;;;8.52;4.38;;;512.20;1715.20;;;;;;4996553;28;20036;-71
2021/08/25 08:48:47;;;;;;;8.85;3.78;;;512.40;1715.20;;;;;;4996611;28;20026;-69
2021/08/25 08:51:18;;;;;;;28.58;4.78;;;512.50;1715.20;;;;;;4996589;28;20058;-67
2021/08/25 08:53:44;;;;;;;12.70;2.90;;;512.70;1689.60;;;;;;4995727;28;20097;-66
2021/08/25 08:56:10;;;;;;;6.50;2.38;;;512.80;1689.60;;;;;;4990874;28;20158;-67
2021/08/25 08:58:40;;;;;;;3.72;2.60;;;512.90;1664.00;;;;;;4980028;28;20573;-67
2021/08/25 09:01:07;;;;;;;3.40;2.50;;;512.90;1689.60;;;;;;4984112;28;20058;-66
2021/08/25 09:03:35;;;;;;;3.50;2.45;;;537.60;1689.60;;;;;;4970186;28;20034;-66
2021/08/25 09:06:02;;;;;;;3.45;2.70;;;537.60;1715.20;;;;;;4991501;28;20487;-66
2021/08/25 09:08:30;;;;;;;3.90;2.97;;;537.60;1689.60;;;;;;4994661;28;20153;-67
2021/08/25 09:11:16;;;;;;;4.57;3.30;;;537.60;1689.60;;;;;;4993145;28;20034;-66
2021/08/25 09:13:50;;;;;;;7.80;2.88;;;537.60;1664.00;;;;;;4995579;28;20030;-67
2021/08/25 09:16:26;;;;;;;4.88;3.03;;;537.60;1664.00;;;;;;4995390;28;20129;-68
2021/08/25 09:19:09;;;;;;;3.85;2.83;;;537.60;1664.00;;;;;;4995457;28;20062;-69
2021/08/25 09:21:39;;;;;;;3.67;2.72;;;537.60;1664.00;;;;;;4994564;28;20030;-68
2021/08/25 09:24:05;;;;;;;5.32;2.85;;;537.60;1689.60;;;;;;4994685;28;20523;-67
2021/08/25 09:26:32;;;;;;;5.13;3.00;;;537.60;1664.00;;;;;;4993920;28;20034;-67
2021/08/25 09:29:21;;;;;;;8.10;4.03;;;537.60;1664.00;;;;;;4995365;28;20034;-66
2021/08/25 09:31:48;;;;;;;3.90;3.28;;;537.60;1664.00;;;;;;4990830;28;20030;-68
2021/08/25 09:34:28;;;;;;;3.63;3.13;;;537.70;1664.00;;;;;;4994166;28;20022;-67
2021/08/25 09:37:08;;;;;;;4.80;2.97;;;537.70;1664.00;;;;;;4994232;28;20027;-68
2021/08/25 09:39:40;;;;;;;8.23;3.17;;;537.70;1664.00;;;;;;4992447;28;20030;-68
2021/08/25 09:42:06;;;;;;;3.67;2.58;;;537.70;1638.40;;;;;;4991468;28;20014;-66
2021/08/25 09:44:33;;;;;;;3.45;2.72;;;537.80;1638.40;;;;;;4993889;28;20026;-68
2021/08/25 09:46:59;;;;;;;9.60;3.15;;;537.70;1638.40;;;;;;4993561;28;20093;-66
2021/08/25 09:49:24;;;;;;;5.25;3.13;;;537.70;1638.40;;;;;;4993623;28;20027;-67
2021/08/25 09:51:51;;;;;;;5.80;3.28;;;537.70;1638.40;;;;;;4993830;28;20018;-67
2021/08/25 09:54:19;;;;;;;12.45;3.72;;;537.80;1638.40;;;;;;4975857;28;20042;-67
2021/08/25 09:56:44;;;;;;;6.13;3.22;;;537.80;1638.40;;;;;;4993279;28;20026;-66
2021/08/25 09:59:12;;;;;;;5.28;3.25;;;537.90;1612.80;;;;;;4994223;28;20376;-67
2021/08/25 10:01:39;;;;;;;3.90;3.10;;;537.90;1638.40;;;;;;4994633;28;20084;-66
2021/08/25 10:04:13;;;;;;;4.63;3.00;;;537.90;1638.40;;;;;;4994601;28;20057;-67
2021/08/25 10:06:45;;;;;;;4.03;2.90;;;538.00;1612.80;;;;;;4976986;28;20030;-67
2021/08/25 10:09:12;;;;;;;3.40;2.80;;;538.10;1612.80;;;;;;4994455;28;20026;-67
2021/08/25 10:11:41;;;;;;;4.78;3.20;;;538.10;1612.80;;;;;;4994382;28;20451;-70
2021/08/25 10:14:08;;;;;;;5.30;3.60;;;538.30;1587.20;;;;;;4994501;28;20493;-67
2021/08/25 10:16:45;;;;;;;5.63;4.07;;;538.40;1587.20;;;;;;4993451;28;20118;-67
2021/08/25 10:19:25;;;;;;;7.53;3.53;;;538.50;1587.20;;;;;;4994189;28;20468;-67
2021/08/25 10:21:51;;;;;;;6.97;3.40;;;563.30;1587.20;;;;;;4994274;28;20026;-68
2021/08/25 10:24:18;;;;;;;3.92;3.20;;;563.50;1587.20;;;;;;4993993;28;20030;-68
2021/08/25 10:27:08;;;;;;;7.03;3.10;;;563.60;1561.60;;;;;;4991268;28;20037;-66
2021/08/25 10:30:15;;;;;;;4.90;2.88;;;563.80;1536.00;;;;;;4949636;29;20023;-68
2021/08/25 10:32:50;;;;;;;5.85;2.72;;;563.80;1536.00;;;;;;4955414;29;20090;-66
2021/08/25 10:35:30;;;;;;;5.22;3.13;;;563.90;1510.40;;;;;;4955280;29;20034;-67
2021/08/25 10:38:20;;;;;;;5.75;2.83;;;563.90;1510.40;;;;;;4938286;29;20117;-67
2021/08/25 10:40:47;;;;;;;4.70;2.78;;;563.90;1510.40;;;;;;4955647;29;20428;-66
2021/08/25 10:43:39;;;;;;;6.70;3.20;;;564.00;1536.00;;;;;;4955467;29;20425;-67
2021/08/25 10:46:07;;;;;;;5.47;2.88;;;563.90;1510.40;;;;;;4956386;28;20031;-69
2021/08/25 10:48:45;;;;;;;6.63;3.00;;;563.90;1536.00;;;;;;4981943;28;20035;-66
2021/08/25 10:51:25;;;;;;;7.57;2.83;;;563.90;1536.00;;;;;;4983660;28;20018;-69
2021/08/25 10:53:51;;;;;;;3.95;2.70;;;563.90;1536.00;;;;;;4983905;28;20508;-67
2021/08/25 10:56:28;;;;;;;7.10;2.78;;;564.00;1536.00;;;;;;4984227;28;20045;-67
2021/08/25 10:59:00;;;;;;;6.65;3.13;;;564.00;1536.00;;;;;;4986956;28;20034;-69
2021/08/25 11:01:35;;;;;;;5.53;3.38;;;563.90;1536.00;;;;;;4963459;28;20031;-67
2021/08/25 11:04:02;;;;;;;4.82;3.38;;;563.90;1536.00;;;;;;4982863;28;20117;-71
2021/08/25 11:06:31;;;;;;;5.97;2.97;;;563.90;1561.60;;;;;;4984288;28;20588;-68
2021/08/25 11:09:23;;;;;;;5.45;3.20;;;563.90;1561.60;;;;;;4984905;28;20027;-67
2021/08/25 11:12:04;;;;;;;4.32;3.05;;;563.90;1536.00;;;;;;4980875;28;20022;-68
2021/08/25 11:14:37;;;;;;;4.90;2.72;;;563.90;1536.00;;;;;;4982731;28;20018;-67
2021/08/25 11:17:13;;;;;;;6.28;3.20;;;563.80;1536.00;;;;;;4983501;28;20029;-72
2021/08/25 11:19:54;;;;;;;4.15;2.78;;;563.90;1536.00;;;;;;4982407;28;20011;-67
2021/08/25 11:22:38;;;;;;;5.60;2.88;;;563.90;1536.00;;;;;;4977009;28;20401;-69
2021/08/25 11:25:13;;;;;;;3.33;2.92;;;564.00;1510.40;;;;;;4981806;28;20035;-71
2021/08/25 11:27:43;;;;;;;4.13;3.03;;;588.80;1484.80;;;;;;4982104;28;20113;-69
2021/08/25 11:30:16;;;;;;;4.30;3.03;;;589.00;1484.80;;;;;;4982502;28;20027;-67
2021/08/25 11:32:49;;;;;;;4.15;2.97;;;589.10;1484.80;;;;;;4974499;28;20093;-67
2021/08/25 11:35:23;;;;;;;4.32;3.30;;;589.20;1433.60;;;;;;4978058;28;20081;-67
2021/08/25 11:37:49;;;;;;;4.82;2.75;;;589.20;1433.60;;;;;;4978314;28;20074;-67
2021/08/25 11:40:15;;;;;;;6.55;2.70;;;589.20;1459.20;;;;;;4978635;28;20027;-67
2021/08/25 11:42:41;;;;;;;6.40;3.25;;;589.40;1433.60;;;;;;4978147;28;20054;-67
2021/08/25 11:45:28;;;;;;;4.70;2.78;;;589.50;1433.60;;;;;;4960634;28;20046;-67
2021/08/25 11:47:56;;;;;;;4.93;2.83;;;614.40;1433.60;;;;;;4978118;28;20038;-67
2021/08/25 11:50:37;;;;;;;3.65;2.78;;;614.40;1408.00;;;;;;4978000;28;20030;-67
2021/08/25 11:53:15;;;;;;;6.72;3.72;;;614.50;1408.00;;;;;;4978264;28;20023;-67
2021/08/25 11:55:41;;;;;;;3.60;2.67;;;614.60;1382.40;;;;;;4977875;28;20472;-67
2021/08/25 11:58:21;;;;;;;5.50;3.50;;;614.70;1382.40;;;;;;4978171;28;20053;-68
2021/08/25 12:00:47;;;;;;;5.38;3.20;;;614.90;1331.20;;;;;;4977782;28;20106;-67
2021/08/25 12:03:13;;;;;;;5.95;3.33;;;615.10;1331.20;;;;;;4981300;28;20077;-67
2021/08/25 12:05:40;;;;;;;4.40;3.25;;;615.20;1331.20;;;;;;4995960;28;20042;-67
2021/08/25 12:08:13;;;;;;;8.27;3.35;;;615.20;1305.60;;;;;;4997374;28;20028;-67
2021/08/25 12:10:41;;;;;;;5.83;3.33;;;615.20;1305.60;;;;;;4997072;28;20068;-72
2021/08/25 12:13:11;;;;;;;5.07;3.15;;;615.20;1331.20;;;;;;4997282;28;20479;-74
2021/08/25 12:15:52;;;;;;;5.57;3.13;;;615.20;1331.20;;;;;;4997190;28;20133;-70
2021/08/25 12:18:22;;;;;;;4.82;2.90;;;615.30;1331.20;;;;;;4996829;28;20037;-76
2021/08/25 12:20:54;;;;;;;5.40;3.83;;;640.00;1305.60;;;;;;4979605;28;20022;-75
2021/08/25 12:23:25;;;;;;;5.20;3.45;;;640.00;1305.60;;;;;;4979785;28;20018;-75